| time (UTC) | temp F | wind direction | speed MPH | gust MPH | rain 1hr in | rain 24hr in | rain mn in | humidity % | barometer mb |
| 20260507104008 | 66 | 79 | 0.0 | 0.0 | 0.00 | 0.00 | 0.00 | 29 | 1012.0 |
| 20260507102504 | 67 | 24 | 2.0 | 5.0 | 0.00 | 0.00 | 0.00 | 29 | 1012.2 |
| 20260507100958 | 66 | 353 | 2.0 | 5.0 | 0.00 | 0.00 | 0.00 | 30 | 1012.0 |
| 20260507095457 | 65 | 53 | 1.0 | 1.0 | 0.00 | 0.00 | 0.00 | 32 | 1012.1 |
| 20260507093953 | 66 | 90 | 0.0 | 0.0 | 0.00 | 0.00 | 0.00 | 31 | 1012.3 |
| 20260507092450 | 66 | 50 | 2.0 | 3.0 | 0.00 | 0.00 | 0.00 | 31 | 1012.2 |
| 20260507090945 | 67 | 49 | 2.0 | 2.0 | 0.00 | 0.00 | 0.00 | 30 | 1012.3 |
| 20260507085442 | 66 | 34 | 1.0 | 2.0 | 0.00 | 0.00 | 0.00 | 32 | 1012.5 |
| 20260507083938 | 66 | 57 | 1.0 | 2.0 | 0.00 | 0.00 | 0.00 | 30 | 1012.5 |
| 20260507082438 | 66 | 64 | 0.0 | 1.0 | 0.00 | 0.00 | 0.00 | 30 | 1012.4 |
| 20260507080935 | 67 | 50 | 1.0 | 1.0 | 0.00 | 0.00 | 0.00 | 29 | 1012.5 |
| 20260507075434 | 68 | 84 | 1.0 | 1.0 | 0.00 | 0.00 | 0.00 | 29 | 1012.5 |
| 20260507073931 | 69 | 89 | 0.0 | 1.0 | 0.00 | 0.00 | 0.00 | 28 | 1012.6 |
| 20260507072428 | 69 | 111 | 0.0 | 1.0 | 0.00 | 0.00 | 0.00 | 28 | 1012.6 |
| 20260507070924 | 69 | 112 | 1.0 | 1.0 | 0.00 | 0.00 | 0.00 | 28 | 1012.7 |
| 20260507065421 | 70 | 114 | 1.0 | 1.0 | 0.00 | 0.00 | 0.00 | 28 | 1012.5 |
| 20260507063920 | 70 | 155 | 1.0 | 1.0 | 0.00 | 0.00 | 0.00 | 27 | 1012.7 |
| 20260507062416 | 71 | 201 | 0.0 | 0.0 | 0.00 | 0.00 | 0.00 | 26 | 1012.7 |
| 20260507060916 | 71 | 201 | 1.0 | 2.0 | 0.00 | 0.00 | 0.00 | 26 | 1012.5 |
| 20260507055416 | 71 | 183 | 0.0 | 0.0 | 0.00 | 0.00 | 0.00 | 27 | 1012.6 |
| 20260507053913 | 73 | 183 | 0.0 | 0.0 | 0.00 | 0.00 | 0.00 | 25 | 1012.7 |
| 20260507052412 | 72 | 181 | 0.0 | 0.0 | 0.00 | 0.00 | 0.00 | 26 | 1012.4 |
| 20260507050909 | 73 | 177 | 0.0 | 0.0 | 0.00 | 0.00 | 0.00 | 25 | 1012.5 |
| 20260507045404 | 74 | 177 | 0.0 | 1.0 | 0.00 | 0.00 | 0.00 | 25 | 1012.6 |
| 20260507043900 | 74 | 187 | 0.0 | 0.0 | 0.00 | 0.00 | 0.00 | 24 | 1012.5 |
| 20260507042355 | 74 | 187 | 0.0 | 0.0 | 0.00 | 0.00 | 0.00 | 24 | 1012.3 |
| 20260507040852 | 75 | 187 | 0.0 | 0.0 | 0.00 | 0.00 | 0.00 | 23 | 1012.3 |
| 20260507035350 | 76 | 187 | 1.0 | 1.0 | 0.00 | 0.00 | 0.00 | 23 | 1011.8 |
| 20260507033848 | 77 | 201 | 0.0 | 1.0 | 0.00 | 0.00 | 0.00 | 22 | 1011.7 |
| 20260507032344 | 78 | 210 | 2.0 | 2.0 | 0.00 | 0.00 | 0.00 | 21 | 1011.5 |
| 20260507030840 | 78 | 222 | 2.0 | 6.0 | 0.00 | 0.00 | 0.00 | 21 | 1011.3 |
| 20260507025337 | 79 | 229 | 4.0 | 5.0 | 0.00 | 0.00 | 0.00 | 20 | 1011.2 |
| 20260507023834 | 79 | 234 | 3.0 | 5.0 | 0.00 | 0.00 | 0.00 | 20 | 1010.9 |
| 20260507022330 | 79 | 231 | 3.0 | 5.0 | 0.00 | 0.00 | 0.00 | 20 | 1011.0 |
| 20260507020825 | 80 | 216 | 4.0 | 8.0 | 0.00 | 0.00 | 0.00 | 20 | 1010.6 |
| 20260507015322 | 81 | 243 | 5.0 | 8.0 | 0.00 | 0.00 | 0.00 | 20 | 1010.5 |
| 20260507013818 | 82 | 241 | 4.0 | 7.0 | 0.00 | 0.00 | 0.00 | 19 | 1010.3 |
| 20260507012314 | 82 | 197 | 2.0 | 5.0 | 0.00 | 0.00 | 0.00 | 19 | 1010.5 |
| 20260507010813 | 82 | 269 | 4.0 | 6.0 | 0.00 | 0.00 | 0.00 | 19 | 1010.4 |
| 20260507005309 | 82 | 192 | 3.0 | 3.0 | 0.00 | 0.00 | 0.00 | 19 | 1010.4 |
| 20260507003806 | 84 | 200 | 3.0 | 3.0 | 0.00 | 0.00 | 0.00 | 19 | 1010.2 |
| 20260507002306 | 84 | 341 | 1.0 | 2.0 | 0.00 | 0.00 | 0.00 | 18 | 1010.4 |
| 20260507000802 | 84 | 238 | 8.0 | 9.0 | 0.00 | 0.00 | 0.00 | 18 | 1010.2 |
| 20260506235256 | 84 | 248 | 3.0 | 9.0 | 0.00 | 0.00 | 0.00 | 18 | 1010.4 |
| 20260506233754 | 83 | 180 | 3.0 | 6.0 | 0.00 | 0.00 | 0.00 | 19 | 1010.5 |
| 20260506232253 | 83 | 210 | 8.0 | 10.0 | 0.00 | 0.00 | 0.00 | 19 | 1010.6 |
| 20260506230752 | 83 | 242 | 3.0 | 8.0 | 0.00 | 0.00 | 0.00 | 19 | 1010.7 |
| 20260506225248 | 83 | 225 | 5.0 | 6.0 | 0.00 | 0.00 | 0.00 | 18 | 1010.8 |
| 20260506223744 | 83 | 160 | 1.0 | 6.0 | 0.00 | 0.00 | 0.00 | 19 | 1010.9 |
| 20260506222238 | 83 | 199 | 2.0 | 5.0 | 0.00 | 0.00 | 0.00 | 20 | 1011.2 |
| 20260506220737 | 82 | 307 | 2.0 | 3.0 | 0.00 | 0.00 | 0.00 | 19 | 1011.3 |
| 20260506215236 | 82 | 203 | 1.0 | 6.0 | 0.00 | 0.00 | 0.00 | 20 | 1011.6 |
| 20260506213734 | 83 | 258 | 6.0 | 7.0 | 0.00 | 0.00 | 0.00 | 18 | 1011.7 |
| 20260506212230 | 81 | 201 | 5.0 | 8.0 | 0.00 | 0.00 | 0.00 | 19 | 1012.0 |
| 20260506210725 | 81 | 166 | 5.0 | 9.0 | 0.00 | 0.00 | 0.00 | 20 | 1012.1 |
| 20260506205220 | 80 | 245 | 3.0 | 6.0 | 0.00 | 0.00 | 0.00 | 20 | 1012.4 |
| 20260506203718 | 81 | 240 | 5.0 | 9.0 | 0.00 | 0.00 | 0.00 | 20 | 1012.5 |
| 20260506202215 | 80 | 315 | 2.0 | 6.0 | 0.00 | 0.00 | 0.00 | 21 | 1012.9 |
| 20260506200711 | 80 | 213 | 3.0 | 5.0 | 0.00 | 0.00 | 0.00 | 21 | 1012.9 |
| 20260506195207 | 78 | 162 | 3.0 | 5.0 | 0.00 | 0.00 | 0.00 | 22 | 1013.0 |
| 20260506193704 | 78 | 180 | 6.0 | 9.0 | 0.00 | 0.00 | 0.00 | 22 | 1013.2 |
| 20260506192200 | 78 | 111 | 2.0 | 5.0 | 0.00 | 0.00 | 0.00 | 22 | 1013.2 |
| 20260506190656 | 77 | 36 | 3.0 | 6.0 | 0.00 | 0.00 | 0.00 | 23 | 1013.3 |
| 20260506185152 | 77 | 264 | 8.0 | 10.0 | 0.00 | 0.00 | 0.00 | 22 | 1013.7 |
| 20260506183649 | 77 | 172 | 1.0 | 5.0 | 0.00 | 0.00 | 0.00 | 24 | 1013.7 |
| 20260506182145 | 76 | 129 | 1.0 | 5.0 | 0.00 | 0.00 | 0.00 | 25 | 1014.0 |
| 20260506180643 | 77 | 213 | 6.0 | 8.0 | 0.00 | 0.00 | 0.00 | 24 | 1014.0 |
| 20260506175138 | 75 | 180 | 2.0 | 3.0 | 0.00 | 0.00 | 0.00 | 27 | 1014.0 |
| 20260506173637 | 74 | 188 | 2.0 | 3.0 | 0.00 | 0.00 | 0.00 | 27 | 1014.2 |
| 20260506172133 | 73 | 184 | 4.0 | 6.0 | 0.00 | 0.00 | 0.00 | 28 | 1014.1 |
| 20260506170631 | 74 | 259 | 4.0 | 7.0 | 0.00 | 0.00 | 0.00 | 27 | 1014.1 |
| 20260506165127 | 73 | 227 | 5.0 | 8.0 | 0.00 | 0.00 | 0.00 | 28 | 1014.2 |
| 20260506163623 | 72 | 232 | 5.0 | 8.0 | 0.00 | 0.00 | 0.00 | 29 | 1013.9 |
| 20260506162123 | 71 | 277 | 3.0 | 6.0 | 0.00 | 0.00 | 0.00 | 30 | 1014.0 |
| 20260506160619 | 70 | 166 | 1.0 | 1.0 | 0.00 | 0.00 | 0.00 | 31 | 1013.9 |
| 20260506155116 | 69 | 185 | 1.0 | 5.0 | 0.00 | 0.00 | 0.00 | 32 | 1013.9 |
| 20260506152732 | 69 | 149 | 4.0 | 5.0 | 0.00 | 0.00 | 0.00 | 32 | 1014.0 |
| 20260506151231 | 68 | 153 | 1.0 | 2.0 | 0.00 | 0.00 | 0.00 | 33 | 1014.0 |
| 20260506145728 | 67 | 150 | 0.0 | 0.0 | 0.00 | 0.00 | 0.00 | 33 | 1013.9 |
| 20260506144224 | 67 | 124 | 0.0 | 1.0 | 0.00 | 0.00 | 0.00 | 34 | 1014.1 |
| 20260506142724 | 65 | 13 | 1.0 | 2.0 | 0.00 | 0.00 | 0.00 | 36 | 1014.2 |
| 20260506141223 | 65 | 166 | 1.0 | 1.0 | 0.00 | 0.00 | 0.00 | 37 | 1013.9 |
| 20260506135719 | 64 | 149 | 0.0 | 0.0 | 0.00 | 0.00 | 0.00 | 37 | 1013.4 |
| 20260506134215 | 63 | 100 | 1.0 | 2.0 | 0.00 | 0.00 | 0.00 | 39 | 1013.4 |
| 20260506132712 | 62 | 96 | 1.0 | 1.0 | 0.00 | 0.00 | 0.00 | 42 | 1013.3 |
| 20260506131208 | 60 | 132 | 0.0 | 0.0 | 0.00 | 0.00 | 0.00 | 44 | 1012.9 |
| 20260506125706 | 58 | 113 | 0.0 | 0.0 | 0.00 | 0.00 | 0.00 | 46 | 1012.8 |
| 20260506124205 | 57 | 124 | 0.0 | 0.0 | 0.00 | 0.00 | 0.00 | 47 | 1012.6 |
| 20260506122703 | 57 | 145 | 1.0 | 1.0 | 0.00 | 0.00 | 0.00 | 47 | 1012.4 |
| 20260506121200 | 57 | 151 | 0.0 | 0.0 | 0.00 | 0.00 | 0.00 | 47 | 1012.3 |
| 20260506115659 | 58 | 151 | 0.0 | 0.0 | 0.00 | 0.00 | 0.00 | 45 | 1012.2 |
| 20260506114158 | 59 | 146 | 0.0 | 0.0 | 0.00 | 0.00 | 0.00 | 43 | 1012.1 |
| 20260506112655 | 59 | 173 | 2.0 | 2.0 | 0.00 | 0.00 | 0.00 | 44 | 1012.2 |
| 20260506111154 | 59 | 89 | 0.0 | 0.0 | 0.00 | 0.00 | 0.00 | 43 | 1012.0 |
| 20260506105650 | 59 | 39 | 0.0 | 0.0 | 0.00 | 0.00 | 0.00 | 42 | 1011.8 |
| 20260506104149 | 61 | 39 | 1.0 | 1.0 | 0.00 | 0.00 | 0.00 | 40 | 1011.9 |